RSCU3W YMML-YMEN
Flight info
| Callsign | RSCU3W |
|---|---|
| Flight time | 0h -1m |
| Altitude | 1000 |
| Route | YMML/27 |
| Aircraft | UH1/L-G/C |
Departure
| Time | 2026-04-12 05:56 |
|---|---|
| Airport | Melbourne Airport (YMML) |
Arrival
| Time | 2026-04-12 05:54 |
|---|---|
| Airport | Melbourne Essendon Airport (YMEN) |
| Time | Latitude | Longitude | Altitude | Speed | Heading |
|---|---|---|---|---|---|
| 2026-04-12 05:54 | -37.66384 | 144.84800 | 347 ft | 0 kts | 354° |
| 2026-04-12 05:54 | -37.66378 | 144.84803 | 350 ft | 4 kts | 355° |
| 2026-04-12 05:55 | -37.66274 | 144.84805 | 364 ft | 23 kts | 333° |
| 2026-04-12 05:55 | -37.66196 | 144.84670 | 417 ft | 33 kts | 287° |
| 2026-04-12 05:55 | -37.66224 | 144.84255 | 616 ft | 61 kts | 256° |
| 2026-04-12 05:55 | -37.66362 | 144.83665 | 963 ft | 66 kts | 247° |
| 2026-04-12 05:56 | -37.66781 | 144.83449 | 1102 ft | 77 kts | 186° |
| 2026-04-12 05:56 | -37.67349 | 144.83790 | 1002 ft | 102 kts | 160° |
| 2026-04-12 05:56 | -37.68003 | 144.84245 | 829 ft | 111 kts | 159° |
| 2026-04-12 05:56 | -37.68706 | 144.84695 | 681 ft | 113 kts | 158° |
| 2026-04-12 05:57 | -37.69404 | 144.85083 | 641 ft | 104 kts | 161° |
| 2026-04-12 05:57 | -37.70014 | 144.85532 | 611 ft | 103 kts | 145° |
| 2026-04-12 05:57 | -37.70538 | 144.86189 | 568 ft | 106 kts | 140° |
| 2026-04-12 05:57 | -37.71113 | 144.86757 | 610 ft | 101 kts | 149° |
| 2026-04-12 05:58 | -37.71699 | 144.87161 | 564 ft | 82 kts | 155° |
| 2026-04-12 05:58 | -37.72164 | 144.87383 | 568 ft | 63 kts | 165° |
| 2026-04-12 05:58 | -37.72572 | 144.87512 | 596 ft | 60 kts | 168° |
| 2026-04-12 05:58 | -37.73004 | 144.87500 | 593 ft | 60 kts | 188° |
| 2026-04-12 05:59 | -37.73366 | 144.87399 | 719 ft | 46 kts | 194° |
| 2026-04-12 05:59 | -37.73675 | 144.87311 | 687 ft | 46 kts | 190° |
| 2026-04-12 05:59 | -37.73974 | 144.87260 | 726 ft | 48 kts | 182° |
| 2026-04-12 05:59 | -37.74393 | 144.87231 | 579 ft | 71 kts | 186° |
| 2026-04-12 06:00 | -37.74926 | 144.87186 | 523 ft | 79 kts | 183° |
| 2026-04-12 06:00 | -37.75493 | 144.87072 | 558 ft | 80 kts | 188° |
| 2026-04-12 06:00 | -37.76050 | 144.87012 | 620 ft | 84 kts | 178° |
| 2026-04-12 06:00 | -37.76629 | 144.87196 | 628 ft | 88 kts | 160° |
| 2026-04-12 06:01 | -37.77174 | 144.87546 | 620 ft | 94 kts | 156° |
| 2026-04-12 06:01 | -37.77812 | 144.87914 | 508 ft | 103 kts | 160° |
| 2026-04-12 06:01 | -37.78335 | 144.88376 | 745 ft | 82 kts | 134° |
| 2026-04-12 06:01 | -37.78646 | 144.89100 | 748 ft | 102 kts | 116° |
| 2026-04-12 06:02 | -37.78889 | 144.89996 | 700 ft | 115 kts | 106° |
| 2026-04-12 06:02 | -37.78987 | 144.90995 | 747 ft | 115 kts | 81° |
| 2026-04-12 06:02 | -37.78677 | 144.91935 | 747 ft | 119 kts | 47° |
| 2026-04-12 06:02 | -37.78132 | 144.92808 | 653 ft | 127 kts | 42° |
| 2026-04-12 06:03 | -37.77523 | 144.93549 | 655 ft | 112 kts | 24° |
| 2026-04-12 06:03 | -37.76831 | 144.93686 | 633 ft | 102 kts | 336° |
| 2026-04-12 06:03 | -37.76098 | 144.93486 | 530 ft | 108 kts | 329° |
| 2026-04-12 06:03 | -37.75351 | 144.93234 | 432 ft | 113 kts | 328° |
| 2026-04-12 06:04 | -37.74599 | 144.92980 | 534 ft | 105 kts | 331° |
| 2026-04-12 06:04 | -37.73899 | 144.92784 | 641 ft | 109 kts | 328° |
| 2026-04-12 06:04 | -37.73306 | 144.92254 | 639 ft | 103 kts | 295° |
| 2026-04-12 06:04 | -37.72884 | 144.91539 | 626 ft | 102 kts | 288° |
| 2026-04-12 06:05 | -37.72551 | 144.90750 | 674 ft | 99 kts | 283° |
| 2026-04-12 06:05 | -37.72506 | 144.89941 | 647 ft | 92 kts | 253° |
| 2026-04-12 06:05 | -37.72893 | 144.89573 | 689 ft | 74 kts | 129° |
| 2026-04-12 06:05 | -37.72970 | 144.90037 | 609 ft | 32 kts | 309° |
| 2026-04-12 06:06 | -37.72891 | 144.89974 | 277 ft | 11 kts | 284° |
| 2026-04-12 06:06 | -37.72898 | 144.89952 | 262 ft | 0 kts | 294° |
| 2026-04-12 06:07 | -37.72812 | 144.89960 | 336 ft | 43 kts | 347° |
| 2026-04-12 06:07 | -37.72342 | 144.89911 | 408 ft | 73 kts | 324° |
| 2026-04-12 06:08 | -37.72016 | 144.89607 | 478 ft | 45 kts | 294° |
| 2026-04-12 06:08 | -37.71955 | 144.89397 | 384 ft | 14 kts | 306° |
| 2026-04-12 06:08 | -37.71959 | 144.89360 | 271 ft | 0 kts | 315° |
| 2026-04-12 06:11 | -37.71955 | 144.89359 | 271 ft | 2 kts | 298° |
| 2026-04-12 06:11 | -37.71950 | 144.89358 | 271 ft | 0 kts | 180° |
| 2026-04-12 06:11 | -37.71953 | 144.89358 | 274 ft | 1 kts | 194° |
| 2026-04-12 06:11 | -37.71952 | 144.89358 | 275 ft | 1 kts | 202° |
| 2026-04-12 06:12 | -37.71966 | 144.89352 | 296 ft | 14 kts | 170° |
| 2026-04-12 06:12 | -37.72211 | 144.89412 | 417 ft | 53 kts | 184° |
| 2026-04-12 06:12 | -37.72667 | 144.89482 | 473 ft | 72 kts | 155° |
| 2026-04-12 06:12 | -37.72867 | 144.89898 | 377 ft | 32 kts | 129° |
| 2026-04-12 06:13 | -37.72892 | 144.89947 | 268 ft | 4 kts | 172° |
| 2026-04-12 06:13 | -37.72896 | 144.89947 | 262 ft | 0 kts | 171° |
| 2026-04-12 06:14 | -37.72898 | 144.89948 | 264 ft | 1 kts | 171° |
| 2026-04-12 06:15 | -37.72898 | 144.89949 | 265 ft | 1 kts | 161° |
| 2026-04-12 06:15 | -37.72897 | 144.89952 | 266 ft | 0 kts | 171° |
| 2026-04-12 06:15 | -37.72895 | 144.89951 | 272 ft | 1 kts | 173° |
| 2026-04-12 06:15 | -37.72897 | 144.89953 | 265 ft | 1 kts | 161° |
| 2026-04-12 06:16 | -37.72897 | 144.89952 | 262 ft | 0 kts | 153° |
| 2026-04-12 06:16 | -37.72900 | 144.89952 | 264 ft | 1 kts | 166° |
| 2026-04-12 06:16 | -37.72900 | 144.89954 | 262 ft | 1 kts | 94° |
| 2026-04-12 06:16 | -37.72899 | 144.89955 | 264 ft | 3 kts | 289° |
| 2026-04-12 06:17 | -37.72897 | 144.89949 | 262 ft | 0 kts | 231° |
| 2026-04-12 06:17 | -37.72896 | 144.89949 | 262 ft | 0 kts | 211° |
| 2026-04-12 06:18 | -37.72897 | 144.89949 | 270 ft | 0 kts | 214° |
| 2026-04-12 06:18 | -37.72895 | 144.89951 | 271 ft | 0 kts | 214° |
| 2026-04-12 06:18 | -37.72894 | 144.89950 | 262 ft | 0 kts | 213° |
| 2026-04-12 06:18 | -37.72890 | 144.89876 | 341 ft | 34 kts | 245° |
| 2026-04-12 06:19 | -37.72840 | 144.89307 | 425 ft | 84 kts | 276° |
| 2026-04-12 06:19 | -37.72307 | 144.88840 | 530 ft | 114 kts | 333° |
| 2026-04-12 06:19 | -37.71465 | 144.88791 | 573 ft | 126 kts | 345° |
| 2026-04-12 06:19 | -37.70618 | 144.88846 | 693 ft | 118 kts | 348° |
| 2026-04-12 06:20 | -37.69777 | 144.88923 | 765 ft | 118 kts | 348° |
| 2026-04-12 06:20 | -37.69105 | 144.88740 | 909 ft | 91 kts | 302° |
| 2026-04-12 06:20 | -37.68856 | 144.88031 | 810 ft | 92 kts | 268° |
| 2026-04-12 06:20 | -37.68728 | 144.87196 | 639 ft | 98 kts | 265° |
| 2026-04-12 06:21 | -37.68672 | 144.86328 | 532 ft | 100 kts | 262° |
| 2026-04-12 06:21 | -37.68628 | 144.85811 | 473 ft | 35 kts | 256° |
| 2026-04-12 06:21 | -37.68626 | 144.85643 | 326 ft | 0 kts | 252° |
| 2026-04-12 06:21 | -37.68626 | 144.85632 | 327 ft | 8 kts | 253° |
| 2026-04-12 06:22 | -37.68623 | 144.85583 | 327 ft | 0 kts | 253° |